sensor_id;sensor_type;location;lat;lon;timestamp;P1;durP1;ratioP1;P2;durP2;ratioP2
16642;SDS011;8435;52.184;5.406;2023-12-14T00:00:06;11.77;;;10.03;;
16642;SDS011;8435;52.184;5.406;2023-12-14T00:02:34;10.97;;;9.67;;
16642;SDS011;8435;52.184;5.406;2023-12-14T00:05:02;10.97;;;9.87;;
16642;SDS011;8435;52.184;5.406;2023-12-14T00:07:30;10.87;;;9.77;;
16642;SDS011;8435;52.184;5.406;2023-12-14T00:09:56;10.60;;;9.50;;
16642;SDS011;8435;52.184;5.406;2023-12-14T00:12:23;10.17;;;9.17;;
16642;SDS011;8435;52.184;5.406;2023-12-14T00:14:50;9.97;;;8.93;;
16642;SDS011;8435;52.184;5.406;2023-12-14T00:17:19;10.30;;;9.33;;
16642;SDS011;8435;52.184;5.406;2023-12-14T00:19:46;10.23;;;9.03;;
16642;SDS011;8435;52.184;5.406;2023-12-14T00:22:14;10.50;;;9.50;;
16642;SDS011;8435;52.184;5.406;2023-12-14T00:24:41;10.30;;;9.40;;
16642;SDS011;8435;52.184;5.406;2023-12-14T00:27:08;10.33;;;9.20;;
16642;SDS011;8435;52.184;5.406;2023-12-14T00:29:34;10.23;;;9.23;;
16642;SDS011;8435;52.184;5.406;2023-12-14T00:32:01;10.07;;;9.10;;
16642;SDS011;8435;52.184;5.406;2023-12-14T00:34:28;10.23;;;9.23;;
16642;SDS011;8435;52.184;5.406;2023-12-14T00:36:55;10.20;;;9.20;;
16642;SDS011;8435;52.184;5.406;2023-12-14T00:39:23;9.47;;;8.57;;
16642;SDS011;8435;52.184;5.406;2023-12-14T00:41:50;10.43;;;9.40;;
16642;SDS011;8435;52.184;5.406;2023-12-14T00:44:17;10.83;;;9.83;;
16642;SDS011;8435;52.184;5.406;2023-12-14T00:46:43;10.50;;;9.43;;
16642;SDS011;8435;52.184;5.406;2023-12-14T00:49:10;10.73;;;9.67;;
16642;SDS011;8435;52.184;5.406;2023-12-14T00:51:37;10.63;;;9.63;;
16642;SDS011;8435;52.184;5.406;2023-12-14T00:54:05;10.03;;;9.13;;
16642;SDS011;8435;52.184;5.406;2023-12-14T00:56:33;9.70;;;8.80;;
16642;SDS011;8435;52.184;5.406;2023-12-14T00:59:00;9.87;;;8.87;;
16642;SDS011;8435;52.184;5.406;2023-12-14T01:01:27;9.83;;;8.83;;
16642;SDS011;8435;52.184;5.406;2023-12-14T01:03:54;9.87;;;8.87;;
16642;SDS011;8435;52.184;5.406;2023-12-14T01:06:21;10.10;;;9.10;;
16642;SDS011;8435;52.184;5.406;2023-12-14T01:08:48;9.77;;;8.83;;
16642;SDS011;8435;52.184;5.406;2023-12-14T01:11:15;10.10;;;8.97;;
16642;SDS011;8435;52.184;5.406;2023-12-14T01:13:43;9.87;;;8.97;;
16642;SDS011;8435;52.184;5.406;2023-12-14T01:16:09;10.20;;;9.17;;
16642;SDS011;8435;52.184;5.406;2023-12-14T01:18:36;9.97;;;8.53;;
16642;SDS011;8435;52.184;5.406;2023-12-14T01:21:03;9.80;;;8.80;;
16642;SDS011;8435;52.184;5.406;2023-12-14T01:23:30;10.13;;;9.13;;
16642;SDS011;8435;52.184;5.406;2023-12-14T01:25:57;9.87;;;8.87;;
16642;SDS011;8435;52.184;5.406;2023-12-14T01:28:24;10.30;;;9.20;;
16642;SDS011;8435;52.184;5.406;2023-12-14T01:30:52;11.10;;;10.00;;
16642;SDS011;8435;52.184;5.406;2023-12-14T01:33:19;10.40;;;9.40;;
16642;SDS011;8435;52.184;5.406;2023-12-14T01:35:46;9.90;;;8.90;;
16642;SDS011;8435;52.184;5.406;2023-12-14T01:38:12;10.20;;;9.23;;
16642;SDS011;8435;52.184;5.406;2023-12-14T01:40:39;10.50;;;9.50;;
16642;SDS011;8435;52.184;5.406;2023-12-14T01:43:06;10.63;;;9.53;;
16642;SDS011;8435;52.184;5.406;2023-12-14T01:45:35;10.40;;;9.40;;
16642;SDS011;8435;52.184;5.406;2023-12-14T01:48:03;10.43;;;9.43;;
16642;SDS011;8435;52.184;5.406;2023-12-14T01:50:30;10.47;;;8.93;;
16642;SDS011;8435;52.184;5.406;2023-12-14T01:53:00;10.27;;;9.17;;
16642;SDS011;8435;52.184;5.406;2023-12-14T01:55:28;9.57;;;8.67;;
16642;SDS011;8435;52.184;5.406;2023-12-14T01:57:55;10.13;;;9.13;;
16642;SDS011;8435;52.184;5.406;2023-12-14T02:00:27;9.93;;;9.00;;
16642;SDS011;8435;52.184;5.406;2023-12-14T02:03:03;8.90;;;8.00;;
16642;SDS011;8435;52.184;5.406;2023-12-14T02:05:30;9.80;;;8.80;;
16642;SDS011;8435;52.184;5.406;2023-12-14T02:07:57;8.90;;;8.07;;
16642;SDS011;8435;52.184;5.406;2023-12-14T02:10:23;10.13;;;9.23;;
16642;SDS011;8435;52.184;5.406;2023-12-14T02:12:53;9.83;;;8.93;;
16642;SDS011;8435;52.184;5.406;2023-12-14T02:15:20;10.27;;;9.27;;
16642;SDS011;8435;52.184;5.406;2023-12-14T02:17:46;10.63;;;9.07;;
16642;SDS011;8435;52.184;5.406;2023-12-14T02:20:15;9.90;;;9.00;;
16642;SDS011;8435;52.184;5.406;2023-12-14T02:22:49;10.27;;;9.37;;
16642;SDS011;8435;52.184;5.406;2023-12-14T02:25:17;9.90;;;8.90;;
16642;SDS011;8435;52.184;5.406;2023-12-14T02:27:44;9.83;;;8.93;;
16642;SDS011;8435;52.184;5.406;2023-12-14T02:30:11;9.50;;;8.57;;
16642;SDS011;8435;52.184;5.406;2023-12-14T02:32:39;10.13;;;9.13;;
16642;SDS011;8435;52.184;5.406;2023-12-14T02:35:06;9.87;;;8.87;;
16642;SDS011;8435;52.184;5.406;2023-12-14T02:37:34;10.53;;;9.53;;
16642;SDS011;8435;52.184;5.406;2023-12-14T02:40:07;10.53;;;9.53;;
16642;SDS011;8435;52.184;5.406;2023-12-14T02:42:34;9.80;;;8.90;;
16642;SDS011;8435;52.184;5.406;2023-12-14T02:45:01;10.33;;;9.43;;
16642;SDS011;8435;52.184;5.406;2023-12-14T02:47:29;9.97;;;8.97;;
16642;SDS011;8435;52.184;5.406;2023-12-14T02:49:56;10.93;;;9.70;;
16642;SDS011;8435;52.184;5.406;2023-12-14T02:52:23;10.50;;;9.40;;
16642;SDS011;8435;52.184;5.406;2023-12-14T02:54:50;10.23;;;9.23;;
16642;SDS011;8435;52.184;5.406;2023-12-14T02:57:18;9.60;;;8.67;;
16642;SDS011;8435;52.184;5.406;2023-12-14T02:59:45;10.67;;;9.60;;
16642;SDS011;8435;52.184;5.406;2023-12-14T03:02:11;10.83;;;9.83;;
16642;SDS011;8435;52.184;5.406;2023-12-14T03:04:38;11.03;;;9.93;;
16642;SDS011;8435;52.184;5.406;2023-12-14T03:07:05;11.63;;;9.40;;
16642;SDS011;8435;52.184;5.406;2023-12-14T03:09:32;10.20;;;9.10;;
16642;SDS011;8435;52.184;5.406;2023-12-14T03:12:00;9.07;;;8.17;;
16642;SDS011;8435;52.184;5.406;2023-12-14T03:14:31;9.50;;;8.57;;
16642;SDS011;8435;52.184;5.406;2023-12-14T03:16:58;9.80;;;8.80;;
16642;SDS011;8435;52.184;5.406;2023-12-14T03:19:27;10.23;;;9.23;;
16642;SDS011;8435;52.184;5.406;2023-12-14T03:21:54;11.10;;;10.00;;
16642;SDS011;8435;52.184;5.406;2023-12-14T03:24:21;11.27;;;10.03;;
16642;SDS011;8435;52.184;5.406;2023-12-14T03:26:47;10.23;;;9.33;;
16642;SDS011;8435;52.184;5.406;2023-12-14T03:29:14;10.63;;;9.53;;
16642;SDS011;8435;52.184;5.406;2023-12-14T03:31:44;10.10;;;9.10;;
16642;SDS011;8435;52.184;5.406;2023-12-14T03:34:11;11.03;;;9.90;;
16642;SDS011;8435;52.184;5.406;2023-12-14T03:36:38;12.00;;;10.83;;
16642;SDS011;8435;52.184;5.406;2023-12-14T03:39:05;11.57;;;10.33;;
16642;SDS011;8435;52.184;5.406;2023-12-14T03:41:32;12.63;;;10.13;;
16642;SDS011;8435;52.184;5.406;2023-12-14T03:43:59;11.80;;;10.53;;
16642;SDS011;8435;52.184;5.406;2023-12-14T03:46:25;12.77;;;10.90;;
16642;SDS011;8435;52.184;5.406;2023-12-14T03:48:53;11.87;;;10.60;;
16642;SDS011;8435;52.184;5.406;2023-12-14T03:51:20;11.77;;;10.23;;
16642;SDS011;8435;52.184;5.406;2023-12-14T03:53:47;13.00;;;10.33;;
16642;SDS011;8435;52.184;5.406;2023-12-14T03:56:17;12.73;;;10.37;;
16642;SDS011;8435;52.184;5.406;2023-12-14T03:58:44;11.10;;;10.00;;
16642;SDS011;8435;52.184;5.406;2023-12-14T04:01:15;11.27;;;10.07;;
16642;SDS011;8435;52.184;5.406;2023-12-14T04:03:45;11.60;;;9.63;;
16642;SDS011;8435;52.184;5.406;2023-12-14T04:06:14;12.07;;;10.30;;
16642;SDS011;8435;52.184;5.406;2023-12-14T04:08:41;10.77;;;9.53;;
16642;SDS011;8435;52.184;5.406;2023-12-14T04:11:08;9.83;;;8.77;;
16642;SDS011;8435;52.184;5.406;2023-12-14T04:13:35;9.83;;;8.83;;
16642;SDS011;8435;52.184;5.406;2023-12-14T04:16:02;10.87;;;9.77;;
16642;SDS011;8435;52.184;5.406;2023-12-14T04:18:36;10.37;;;8.80;;
16642;SDS011;8435;52.184;5.406;2023-12-14T04:21:04;9.13;;;8.20;;
16642;SDS011;8435;52.184;5.406;2023-12-14T04:23:32;9.77;;;8.13;;
16642;SDS011;8435;52.184;5.406;2023-12-14T04:25:59;8.23;;;7.40;;
16642;SDS011;8435;52.184;5.406;2023-12-14T04:28:26;9.60;;;8.20;;
16642;SDS011;8435;52.184;5.406;2023-12-14T04:30:53;8.27;;;7.47;;
16642;SDS011;8435;52.184;5.406;2023-12-14T04:33:20;9.27;;;7.77;;
16642;SDS011;8435;52.184;5.406;2023-12-14T04:35:50;8.20;;;7.40;;
16642;SDS011;8435;52.184;5.406;2023-12-14T04:38:20;8.43;;;7.47;;
16642;SDS011;8435;52.184;5.406;2023-12-14T04:40:48;8.87;;;8.07;;
16642;SDS011;8435;52.184;5.406;2023-12-14T04:43:15;9.30;;;7.97;;
16642;SDS011;8435;52.184;5.406;2023-12-14T04:45:42;8.83;;;7.93;;
16642;SDS011;8435;52.184;5.406;2023-12-14T04:48:09;8.80;;;7.77;;
16642;SDS011;8435;52.184;5.406;2023-12-14T04:50:36;9.17;;;8.20;;
16642;SDS011;8435;52.184;5.406;2023-12-14T04:53:02;8.50;;;7.67;;
16642;SDS011;8435;52.184;5.406;2023-12-14T04:55:29;9.00;;;8.10;;
16642;SDS011;8435;52.184;5.406;2023-12-14T04:57:57;8.73;;;7.87;;
16642;SDS011;8435;52.184;5.406;2023-12-14T05:00:24;8.23;;;7.43;;
16642;SDS011;8435;52.184;5.406;2023-12-14T05:02:51;10.87;;;7.97;;
16642;SDS011;8435;52.184;5.406;2023-12-14T05:05:18;8.83;;;7.80;;
16642;SDS011;8435;52.184;5.406;2023-12-14T05:07:45;9.10;;;8.20;;
16642;SDS011;8435;52.184;5.406;2023-12-14T05:10:11;9.43;;;8.13;;
16642;SDS011;8435;52.184;5.406;2023-12-14T05:12:38;8.20;;;7.40;;
16642;SDS011;8435;52.184;5.406;2023-12-14T05:15:10;9.57;;;8.57;;
16642;SDS011;8435;52.184;5.406;2023-12-14T05:17:37;8.73;;;7.50;;
16642;SDS011;8435;52.184;5.406;2023-12-14T05:20:04;8.80;;;7.77;;
16642;SDS011;8435;52.184;5.406;2023-12-14T05:22:36;9.07;;;7.97;;
16642;SDS011;8435;52.184;5.406;2023-12-14T05:25:03;8.37;;;7.57;;
16642;SDS011;8435;52.184;5.406;2023-12-14T05:27:30;8.47;;;7.43;;
16642;SDS011;8435;52.184;5.406;2023-12-14T05:29:57;8.20;;;7.30;;
16642;SDS011;8435;52.184;5.406;2023-12-14T05:32:25;8.60;;;7.63;;
16642;SDS011;8435;52.184;5.406;2023-12-14T05:34:52;9.00;;;7.23;;
16642;SDS011;8435;52.184;5.406;2023-12-14T05:37:19;8.17;;;7.37;;
16642;SDS011;8435;52.184;5.406;2023-12-14T05:39:45;7.80;;;6.90;;
16642;SDS011;8435;52.184;5.406;2023-12-14T05:42:12;7.73;;;7.03;;
16642;SDS011;8435;52.184;5.406;2023-12-14T05:44:43;9.03;;;7.50;;
16642;SDS011;8435;52.184;5.406;2023-12-14T05:47:10;8.40;;;7.20;;
16642;SDS011;8435;52.184;5.406;2023-12-14T05:49:41;8.47;;;7.30;;
16642;SDS011;8435;52.184;5.406;2023-12-14T05:52:08;7.07;;;6.43;;
16642;SDS011;8435;52.184;5.406;2023-12-14T05:54:35;8.00;;;7.20;;
16642;SDS011;8435;52.184;5.406;2023-12-14T05:57:02;8.40;;;6.67;;
16642;SDS011;8435;52.184;5.406;2023-12-14T05:59:29;8.60;;;6.80;;
16642;SDS011;8435;52.184;5.406;2023-12-14T06:01:56;7.63;;;6.90;;
16642;SDS011;8435;52.184;5.406;2023-12-14T06:04:23;7.23;;;6.47;;
16642;SDS011;8435;52.184;5.406;2023-12-14T06:06:54;7.53;;;6.73;;
16642;SDS011;8435;52.184;5.406;2023-12-14T06:09:24;7.17;;;6.47;;
16642;SDS011;8435;52.184;5.406;2023-12-14T06:11:58;6.83;;;6.23;;
16642;SDS011;8435;52.184;5.406;2023-12-14T06:14:25;6.80;;;6.10;;
16642;SDS011;8435;52.184;5.406;2023-12-14T06:16:52;7.77;;;6.90;;
16642;SDS011;8435;52.184;5.406;2023-12-14T06:19:19;7.17;;;6.47;;
16642;SDS011;8435;52.184;5.406;2023-12-14T06:21:46;6.07;;;5.47;;
16642;SDS011;8435;52.184;5.406;2023-12-14T06:24:15;7.30;;;6.30;;
16642;SDS011;8435;52.184;5.406;2023-12-14T06:26:42;7.57;;;6.60;;
16642;SDS011;8435;52.184;5.406;2023-12-14T06:29:09;8.73;;;7.23;;
16642;SDS011;8435;52.184;5.406;2023-12-14T06:31:36;8.13;;;6.97;;
16642;SDS011;8435;52.184;5.406;2023-12-14T06:34:04;7.27;;;6.50;;
16642;SDS011;8435;52.184;5.406;2023-12-14T06:36:32;7.60;;;6.57;;
16642;SDS011;8435;52.184;5.406;2023-12-14T06:38:59;7.17;;;6.47;;
16642;SDS011;8435;52.184;5.406;2023-12-14T06:41:28;7.53;;;6.50;;
16642;SDS011;8435;52.184;5.406;2023-12-14T06:43:55;7.73;;;6.93;;
16642;SDS011;8435;52.184;5.406;2023-12-14T06:46:25;7.20;;;6.50;;
16642;SDS011;8435;52.184;5.406;2023-12-14T06:48:54;7.57;;;6.87;;
16642;SDS011;8435;52.184;5.406;2023-12-14T06:51:21;7.43;;;6.73;;
16642;SDS011;8435;52.184;5.406;2023-12-14T06:53:51;7.53;;;6.80;;
16642;SDS011;8435;52.184;5.406;2023-12-14T06:56:17;8.20;;;7.27;;
16642;SDS011;8435;52.184;5.406;2023-12-14T06:58:45;8.17;;;6.50;;
16642;SDS011;8435;52.184;5.406;2023-12-14T07:01:14;7.30;;;6.60;;
16642;SDS011;8435;52.184;5.406;2023-12-14T07:03:41;6.97;;;6.23;;
16642;SDS011;8435;52.184;5.406;2023-12-14T07:06:11;6.97;;;6.27;;
16642;SDS011;8435;52.184;5.406;2023-12-14T07:08:38;7.77;;;6.40;;
16642;SDS011;8435;52.184;5.406;2023-12-14T07:11:06;7.93;;;6.77;;
16642;SDS011;8435;52.184;5.406;2023-12-14T07:13:33;7.10;;;6.40;;
16642;SDS011;8435;52.184;5.406;2023-12-14T07:16:02;7.73;;;7.03;;
16642;SDS011;8435;52.184;5.406;2023-12-14T07:18:30;7.33;;;6.57;;
16642;SDS011;8435;52.184;5.406;2023-12-14T07:21:01;7.70;;;7.00;;
16642;SDS011;8435;52.184;5.406;2023-12-14T07:23:27;7.63;;;6.80;;
16642;SDS011;8435;52.184;5.406;2023-12-14T07:25:57;7.27;;;6.63;;
16642;SDS011;8435;52.184;5.406;2023-12-14T07:28:24;7.80;;;6.83;;
16642;SDS011;8435;52.184;5.406;2023-12-14T07:30:51;7.03;;;6.43;;
16642;SDS011;8435;52.184;5.406;2023-12-14T07:33:19;8.00;;;7.30;;
16642;SDS011;8435;52.184;5.406;2023-12-14T07:35:45;7.93;;;7.23;;
16642;SDS011;8435;52.184;5.406;2023-12-14T07:38:12;8.93;;;7.83;;
16642;SDS011;8435;52.184;5.406;2023-12-14T07:40:39;7.77;;;7.07;;
16642;SDS011;8435;52.184;5.406;2023-12-14T07:43:06;8.17;;;7.37;;
16642;SDS011;8435;52.184;5.406;2023-12-14T07:45:33;8.57;;;7.77;;
16642;SDS011;8435;52.184;5.406;2023-12-14T07:48:00;8.33;;;7.53;;
16642;SDS011;8435;52.184;5.406;2023-12-14T07:50:30;8.53;;;7.67;;
16642;SDS011;8435;52.184;5.406;2023-12-14T07:52:57;8.00;;;7.30;;
16642;SDS011;8435;52.184;5.406;2023-12-14T07:55:23;8.13;;;7.33;;
16642;SDS011;8435;52.184;5.406;2023-12-14T07:57:50;8.27;;;7.37;;
16642;SDS011;8435;52.184;5.406;2023-12-14T08:00:17;7.83;;;7.03;;
16642;SDS011;8435;52.184;5.406;2023-12-14T08:02:44;8.73;;;7.30;;
16642;SDS011;8435;52.184;5.406;2023-12-14T08:05:14;7.77;;;7.07;;
16642;SDS011;8435;52.184;5.406;2023-12-14T08:07:42;8.47;;;7.67;;
16642;SDS011;8435;52.184;5.406;2023-12-14T08:10:09;7.83;;;7.00;;
16642;SDS011;8435;52.184;5.406;2023-12-14T08:12:42;8.07;;;7.37;;
16642;SDS011;8435;52.184;5.406;2023-12-14T08:15:09;7.67;;;6.83;;
16642;SDS011;8435;52.184;5.406;2023-12-14T08:17:37;7.83;;;7.10;;
16642;SDS011;8435;52.184;5.406;2023-12-14T08:20:04;8.10;;;7.30;;
16642;SDS011;8435;52.184;5.406;2023-12-14T08:22:36;8.40;;;7.23;;
16642;SDS011;8435;52.184;5.406;2023-12-14T08:25:10;8.37;;;7.57;;
16642;SDS011;8435;52.184;5.406;2023-12-14T08:27:38;8.00;;;7.00;;
16642;SDS011;8435;52.184;5.406;2023-12-14T08:30:05;9.23;;;8.30;;
16642;SDS011;8435;52.184;5.406;2023-12-14T08:32:33;8.20;;;7.40;;
16642;SDS011;8435;52.184;5.406;2023-12-14T08:34:59;8.13;;;7.33;;
16642;SDS011;8435;52.184;5.406;2023-12-14T08:37:26;7.60;;;6.90;;
16642;SDS011;8435;52.184;5.406;2023-12-14T08:39:53;8.60;;;7.70;;
16642;SDS011;8435;52.184;5.406;2023-12-14T08:42:23;7.93;;;7.17;;
16642;SDS011;8435;52.184;5.406;2023-12-14T08:44:50;9.07;;;7.80;;
16642;SDS011;8435;52.184;5.406;2023-12-14T08:47:16;8.53;;;7.57;;
16642;SDS011;8435;52.184;5.406;2023-12-14T08:49:43;8.70;;;7.67;;
16642;SDS011;8435;52.184;5.406;2023-12-14T08:52:10;8.23;;;7.43;;
16642;SDS011;8435;52.184;5.406;2023-12-14T08:54:39;7.80;;;7.10;;
16642;SDS011;8435;52.184;5.406;2023-12-14T08:57:08;7.97;;;7.20;;
16642;SDS011;8435;52.184;5.406;2023-12-14T08:59:39;7.67;;;6.97;;
16642;SDS011;8435;52.184;5.406;2023-12-14T09:02:05;8.03;;;7.33;;
16642;SDS011;8435;52.184;5.406;2023-12-14T09:04:32;8.17;;;7.00;;
16642;SDS011;8435;52.184;5.406;2023-12-14T09:07:01;8.70;;;7.43;;
16642;SDS011;8435;52.184;5.406;2023-12-14T09:09:29;8.53;;;7.73;;
16642;SDS011;8435;52.184;5.406;2023-12-14T09:11:57;8.73;;;7.93;;
16642;SDS011;8435;52.184;5.406;2023-12-14T09:14:24;9.20;;;7.53;;
16642;SDS011;8435;52.184;5.406;2023-12-14T09:16:52;8.03;;;7.23;;
16642;SDS011;8435;52.184;5.406;2023-12-14T09:19:19;8.87;;;7.97;;
16642;SDS011;8435;52.184;5.406;2023-12-14T09:21:46;8.83;;;7.40;;
16642;SDS011;8435;52.184;5.406;2023-12-14T09:24:12;8.57;;;7.67;;
16642;SDS011;8435;52.184;5.406;2023-12-14T09:26:39;8.70;;;7.80;;
16642;SDS011;8435;52.184;5.406;2023-12-14T09:29:06;7.67;;;6.97;;
16642;SDS011;8435;52.184;5.406;2023-12-14T09:31:33;7.70;;;7.00;;
16642;SDS011;8435;52.184;5.406;2023-12-14T09:34:01;7.70;;;6.93;;
16642;SDS011;8435;52.184;5.406;2023-12-14T09:36:28;8.60;;;7.43;;
16642;SDS011;8435;52.184;5.406;2023-12-14T09:38:55;7.90;;;6.93;;
16642;SDS011;8435;52.184;5.406;2023-12-14T09:41:24;8.73;;;7.57;;
16642;SDS011;8435;52.184;5.406;2023-12-14T09:43:51;7.60;;;6.90;;
16642;SDS011;8435;52.184;5.406;2023-12-14T09:46:18;8.20;;;7.30;;
16642;SDS011;8435;52.184;5.406;2023-12-14T09:48:48;8.47;;;7.67;;
16642;SDS011;8435;52.184;5.406;2023-12-14T09:51:18;8.17;;;7.37;;
16642;SDS011;8435;52.184;5.406;2023-12-14T09:53:45;8.47;;;7.60;;
16642;SDS011;8435;52.184;5.406;2023-12-14T09:56:11;7.90;;;7.17;;
16642;SDS011;8435;52.184;5.406;2023-12-14T09:58:39;7.40;;;6.70;;
16642;SDS011;8435;52.184;5.406;2023-12-14T10:01:20;7.80;;;7.10;;
16642;SDS011;8435;52.184;5.406;2023-12-14T10:03:48;7.90;;;7.10;;
16642;SDS011;8435;52.184;5.406;2023-12-14T10:06:14;7.43;;;6.73;;
16642;SDS011;8435;52.184;5.406;2023-12-14T10:08:43;8.03;;;7.20;;
16642;SDS011;8435;52.184;5.406;2023-12-14T10:11:20;7.80;;;7.10;;
16642;SDS011;8435;52.184;5.406;2023-12-14T10:13:47;8.33;;;7.07;;
16642;SDS011;8435;52.184;5.406;2023-12-14T10:16:26;8.07;;;7.03;;
16642;SDS011;8435;52.184;5.406;2023-12-14T10:18:55;7.80;;;7.10;;
16642;SDS011;8435;52.184;5.406;2023-12-14T10:21:22;7.83;;;7.07;;
16642;SDS011;8435;52.184;5.406;2023-12-14T10:23:51;8.10;;;6.73;;
16642;SDS011;8435;52.184;5.406;2023-12-14T10:26:17;7.47;;;6.67;;
16642;SDS011;8435;52.184;5.406;2023-12-14T10:28:44;7.33;;;6.63;;
16642;SDS011;8435;52.184;5.406;2023-12-14T10:31:11;9.03;;;7.30;;
16642;SDS011;8435;52.184;5.406;2023-12-14T10:33:38;8.07;;;7.27;;
16642;SDS011;8435;52.184;5.406;2023-12-14T10:36:05;7.40;;;6.70;;
16642;SDS011;8435;52.184;5.406;2023-12-14T10:38:33;7.37;;;6.40;;
16642;SDS011;8435;52.184;5.406;2023-12-14T10:41:10;7.50;;;6.73;;
16642;SDS011;8435;52.184;5.406;2023-12-14T10:43:39;8.40;;;6.70;;
16642;SDS011;8435;52.184;5.406;2023-12-14T10:46:08;7.33;;;6.53;;
16642;SDS011;8435;52.184;5.406;2023-12-14T10:48:36;7.97;;;6.80;;
16642;SDS011;8435;52.184;5.406;2023-12-14T10:51:03;7.40;;;6.13;;
16642;SDS011;8435;52.184;5.406;2023-12-14T10:53:31;9.63;;;6.57;;
16642;SDS011;8435;52.184;5.406;2023-12-14T10:55:59;7.00;;;6.40;;
16642;SDS011;8435;52.184;5.406;2023-12-14T10:58:31;6.67;;;6.17;;
16642;SDS011;8435;52.184;5.406;2023-12-14T11:01:13;6.17;;;5.57;;
16642;SDS011;8435;52.184;5.406;2023-12-14T11:03:40;10.40;;;6.60;;
16642;SDS011;8435;52.184;5.406;2023-12-14T11:06:15;6.47;;;5.87;;
16642;SDS011;8435;52.184;5.406;2023-12-14T11:08:48;7.20;;;6.50;;
16642;SDS011;8435;52.184;5.406;2023-12-14T11:11:17;8.30;;;6.30;;
16642;SDS011;8435;52.184;5.406;2023-12-14T11:13:47;6.93;;;6.10;;
16642;SDS011;8435;52.184;5.406;2023-12-14T11:16:19;7.30;;;6.53;;
16642;SDS011;8435;52.184;5.406;2023-12-14T11:18:47;8.20;;;7.40;;
16642;SDS011;8435;52.184;5.406;2023-12-14T11:21:17;7.00;;;6.40;;
16642;SDS011;8435;52.184;5.406;2023-12-14T11:23:46;6.93;;;6.27;;
16642;SDS011;8435;52.184;5.406;2023-12-14T11:26:20;7.07;;;6.40;;
16642;SDS011;8435;52.184;5.406;2023-12-14T11:28:55;7.73;;;7.03;;
16642;SDS011;8435;52.184;5.406;2023-12-14T11:31:22;8.50;;;7.40;;
16642;SDS011;8435;52.184;5.406;2023-12-14T11:33:49;8.97;;;8.07;;
16642;SDS011;8435;52.184;5.406;2023-12-14T11:36:15;9.13;;;8.23;;
16642;SDS011;8435;52.184;5.406;2023-12-14T11:38:42;9.50;;;8.53;;
16642;SDS011;8435;52.184;5.406;2023-12-14T11:41:09;8.33;;;7.53;;
16642;SDS011;8435;52.184;5.406;2023-12-14T11:43:40;8.20;;;7.40;;
16642;SDS011;8435;52.184;5.406;2023-12-14T11:46:08;9.10;;;7.77;;
16642;SDS011;8435;52.184;5.406;2023-12-14T11:48:35;9.70;;;8.33;;
16642;SDS011;8435;52.184;5.406;2023-12-14T11:51:02;8.30;;;7.00;;
16642;SDS011;8435;52.184;5.406;2023-12-14T11:53:29;8.17;;;7.37;;
16642;SDS011;8435;52.184;5.406;2023-12-14T11:55:56;8.07;;;7.10;;
16642;SDS011;8435;52.184;5.406;2023-12-14T11:58:23;7.53;;;6.63;;
16642;SDS011;8435;52.184;5.406;2023-12-14T12:00:51;7.67;;;6.80;;
16642;SDS011;8435;52.184;5.406;2023-12-14T12:03:19;7.77;;;6.97;;
16642;SDS011;8435;52.184;5.406;2023-12-14T12:05:47;7.97;;;6.87;;
16642;SDS011;8435;52.184;5.406;2023-12-14T12:08:15;8.00;;;7.00;;
16642;SDS011;8435;52.184;5.406;2023-12-14T12:10:43;7.33;;;6.67;;
16642;SDS011;8435;52.184;5.406;2023-12-14T12:13:12;7.57;;;6.87;;
16642;SDS011;8435;52.184;5.406;2023-12-14T12:15:40;8.50;;;7.60;;
16642;SDS011;8435;52.184;5.406;2023-12-14T12:18:08;8.13;;;7.33;;
16642;SDS011;8435;52.184;5.406;2023-12-14T12:20:37;8.50;;;7.70;;
16642;SDS011;8435;52.184;5.406;2023-12-14T12:23:10;8.47;;;7.57;;
16642;SDS011;8435;52.184;5.406;2023-12-14T12:25:37;8.40;;;7.07;;
16642;SDS011;8435;52.184;5.406;2023-12-14T12:28:05;7.73;;;6.87;;
16642;SDS011;8435;52.184;5.406;2023-12-14T12:30:31;8.10;;;7.23;;
16642;SDS011;8435;52.184;5.406;2023-12-14T12:33:01;6.63;;;6.03;;
16642;SDS011;8435;52.184;5.406;2023-12-14T12:35:30;7.07;;;6.40;;
16642;SDS011;8435;52.184;5.406;2023-12-14T12:38:02;7.33;;;6.63;;
16642;SDS011;8435;52.184;5.406;2023-12-14T12:40:31;6.80;;;6.20;;
16642;SDS011;8435;52.184;5.406;2023-12-14T12:42:58;7.57;;;6.77;;
16642;SDS011;8435;52.184;5.406;2023-12-14T12:45:29;7.43;;;6.63;;
16642;SDS011;8435;52.184;5.406;2023-12-14T12:47:57;6.67;;;6.07;;
16642;SDS011;8435;52.184;5.406;2023-12-14T12:50:24;6.93;;;6.23;;
16642;SDS011;8435;52.184;5.406;2023-12-14T12:52:51;6.73;;;6.23;;
16642;SDS011;8435;52.184;5.406;2023-12-14T12:55:19;7.53;;;6.07;;
16642;SDS011;8435;52.184;5.406;2023-12-14T12:57:46;7.67;;;6.87;;
16642;SDS011;8435;52.184;5.406;2023-12-14T13:00:14;10.43;;;6.73;;
16642;SDS011;8435;52.184;5.406;2023-12-14T13:02:42;8.03;;;7.13;;
16642;SDS011;8435;52.184;5.406;2023-12-14T13:05:10;8.13;;;7.43;;
16642;SDS011;8435;52.184;5.406;2023-12-14T13:07:37;7.97;;;7.07;;
16642;SDS011;8435;52.184;5.406;2023-12-14T13:10:04;8.07;;;7.30;;
16642;SDS011;8435;52.184;5.406;2023-12-14T13:12:33;6.87;;;6.13;;
16642;SDS011;8435;52.184;5.406;2023-12-14T13:15:00;8.77;;;7.40;;
16642;SDS011;8435;52.184;5.406;2023-12-14T13:17:27;7.07;;;6.37;;
16642;SDS011;8435;52.184;5.406;2023-12-14T13:19:54;7.40;;;6.70;;
16642;SDS011;8435;52.184;5.406;2023-12-14T13:22:22;7.00;;;6.33;;
16642;SDS011;8435;52.184;5.406;2023-12-14T13:24:49;6.83;;;6.13;;
16642;SDS011;8435;52.184;5.406;2023-12-14T13:27:16;6.87;;;5.93;;
16642;SDS011;8435;52.184;5.406;2023-12-14T13:29:44;6.23;;;5.63;;
16642;SDS011;8435;52.184;5.406;2023-12-14T13:32:11;5.37;;;4.87;;
16642;SDS011;8435;52.184;5.406;2023-12-14T13:34:38;5.30;;;4.80;;
16642;SDS011;8435;52.184;5.406;2023-12-14T13:37:04;6.10;;;5.27;;
16642;SDS011;8435;52.184;5.406;2023-12-14T13:39:33;5.80;;;4.70;;
16642;SDS011;8435;52.184;5.406;2023-12-14T13:42:05;5.53;;;4.90;;
16642;SDS011;8435;52.184;5.406;2023-12-14T13:44:32;4.73;;;4.33;;
16642;SDS011;8435;52.184;5.406;2023-12-14T13:47:01;4.73;;;4.03;;
16642;SDS011;8435;52.184;5.406;2023-12-14T13:49:27;5.13;;;4.67;;
16642;SDS011;8435;52.184;5.406;2023-12-14T13:51:54;5.10;;;4.70;;
16642;SDS011;8435;52.184;5.406;2023-12-14T13:54:21;5.20;;;4.70;;
16642;SDS011;8435;52.184;5.406;2023-12-14T13:56:49;5.40;;;4.90;;
16642;SDS011;8435;52.184;5.406;2023-12-14T13:59:15;6.07;;;5.57;;
16642;SDS011;8435;52.184;5.406;2023-12-14T14:01:44;5.43;;;4.93;;
16642;SDS011;8435;52.184;5.406;2023-12-14T14:04:16;5.70;;;4.77;;
16642;SDS011;8435;52.184;5.406;2023-12-14T14:06:45;5.80;;;5.13;;
16642;SDS011;8435;52.184;5.406;2023-12-14T14:09:12;5.87;;;4.80;;
16642;SDS011;8435;52.184;5.406;2023-12-14T14:11:39;5.83;;;5.10;;
16642;SDS011;8435;52.184;5.406;2023-12-14T14:14:10;5.93;;;5.33;;
16642;SDS011;8435;52.184;5.406;2023-12-14T14:16:37;5.83;;;5.23;;
16642;SDS011;8435;52.184;5.406;2023-12-14T14:19:04;6.47;;;5.30;;
16642;SDS011;8435;52.184;5.406;2023-12-14T14:21:32;6.43;;;4.63;;
16642;SDS011;8435;52.184;5.406;2023-12-14T14:23:59;6.17;;;5.27;;
16642;SDS011;8435;52.184;5.406;2023-12-14T14:26:25;6.97;;;5.43;;
16642;SDS011;8435;52.184;5.406;2023-12-14T14:28:52;5.40;;;4.87;;
16642;SDS011;8435;52.184;5.406;2023-12-14T14:31:21;6.23;;;5.03;;
16642;SDS011;8435;52.184;5.406;2023-12-14T14:33:47;6.57;;;5.10;;
16642;SDS011;8435;52.184;5.406;2023-12-14T14:36:14;5.87;;;5.33;;
16642;SDS011;8435;52.184;5.406;2023-12-14T14:38:42;7.40;;;5.27;;
16642;SDS011;8435;52.184;5.406;2023-12-14T14:41:09;6.03;;;5.37;;
16642;SDS011;8435;52.184;5.406;2023-12-14T14:43:36;5.40;;;4.90;;
16642;SDS011;8435;52.184;5.406;2023-12-14T14:46:03;5.90;;;5.37;;
16642;SDS011;8435;52.184;5.406;2023-12-14T14:48:30;6.73;;;5.60;;
16642;SDS011;8435;52.184;5.406;2023-12-14T14:50:57;6.43;;;5.20;;
16642;SDS011;8435;52.184;5.406;2023-12-14T14:53:23;6.83;;;6.13;;
16642;SDS011;8435;52.184;5.406;2023-12-14T14:55:51;7.80;;;6.60;;
16642;SDS011;8435;52.184;5.406;2023-12-14T14:58:20;7.20;;;6.60;;
16642;SDS011;8435;52.184;5.406;2023-12-14T15:00:49;7.17;;;6.47;;